createdAt,value
2018-05-17T00:00:42.656Z,75.91
2018-05-17T00:01:42.639Z,74.96
2018-05-17T00:02:42.360Z,75.91
2018-05-17T00:03:42.609Z,74.19
2018-05-17T00:04:42.591Z,74.77
2018-05-17T00:05:42.586Z,74.01
2018-05-17T00:06:42.561Z,74.48
2018-05-17T00:07:42.544Z,74.77
2018-05-17T00:08:42.536Z,74.01
2018-05-17T00:09:42.249Z,73.72
2018-05-17T00:10:42.504Z,73.72
2018-05-17T00:11:42.218Z,73.81
2018-05-17T00:12:42.476Z,74.01
2018-05-17T00:13:42.454Z,74.29
2018-05-17T00:14:42.177Z,72.67
2018-05-17T00:15:42.362Z,72.38
2018-05-17T00:16:42.408Z,72.57
2018-05-17T00:17:42.132Z,74.38
2018-05-17T00:18:42.381Z,74.67
2018-05-17T00:19:42.099Z,72.76
2018-05-17T00:20:42.357Z,74.38
2018-05-17T00:21:42.067Z,74.1
2018-05-17T00:22:42.053Z,73.81
2018-05-17T00:23:42.376Z,72.67
2018-05-17T00:24:42.226Z,72.57
2018-05-17T00:25:42.276Z,72.53
2018-05-17T00:26:42.255Z,72.25
2018-05-17T00:27:42.243Z,72.44
2018-05-17T00:28:42.233Z,73.05
2018-05-17T00:29:41.947Z,72.86
2018-05-17T00:30:42.209Z,74.38
2018-05-17T00:31:42.184Z,73.96
2018-05-17T00:32:41.904Z,72.44
2018-05-17T00:33:42.157Z,75.01
2018-05-17T00:34:41.881Z,73.91
2018-05-17T00:35:42.296Z,72.53
2018-05-17T00:36:42.105Z,72.63
2018-05-17T00:37:42.090Z,72.92
2018-05-17T00:38:41.810Z,72.82
2018-05-17T00:39:42.068Z,72.25
2018-05-17T00:40:42.043Z,73.01
2018-05-17T00:41:42.028Z,72.34
2018-05-17T00:42:42.017Z,72.06
2018-05-17T00:43:42.001Z,71.77
2018-05-17T00:44:41.981Z,72.16
2018-05-17T00:45:41.699Z,70.63
2018-05-17T00:46:41.684Z,70.82
2018-05-17T00:47:41.939Z,70.44
2018-05-17T00:48:41.932Z,71.48
2018-05-17T00:49:41.929Z,71.48
2018-05-17T00:50:41.901Z,71.39
2018-05-17T00:51:41.876Z,72.63
2018-05-17T00:52:41.856Z,71.48
2018-05-17T00:53:41.843Z,71.39
2018-05-17T00:54:41.829Z,70.15
2018-05-17T00:55:41.814Z,70.15
2018-05-17T00:56:41.798Z,68.82
2018-05-17T00:57:41.781Z,70.92
2018-05-17T00:58:41.500Z,72.34
2018-05-17T00:59:41.753Z,72.34
2018-05-17T01:00:41.737Z,71.48
2018-05-17T01:01:41.455Z,71.3
2018-05-17T01:02:41.707Z,70.82
2018-05-17T01:03:41.422Z,70.92
2018-05-17T01:04:41.673Z,71.3
2018-05-17T01:05:41.658Z,70.15
2018-05-17T01:06:41.377Z,70.25
2018-05-17T01:07:41.628Z,69.68
2018-05-17T01:08:41.346Z,70.25
2018-05-17T01:09:41.601Z,69.68
2018-05-17T01:10:41.316Z,70.72
2018-05-17T01:11:41.301Z,68.53
2018-05-17T01:12:41.548Z,69.68
2018-05-17T01:13:41.531Z,70.15
2018-05-17T01:14:41.521Z,70.82
2018-05-17T01:15:41.247Z,69.29
2018-05-17T01:16:41.235Z,69.48
2018-05-17T01:17:41.206Z,69.39
2018-05-17T01:18:41.458Z,68.82
2018-05-17T01:19:41.441Z,68.53
2018-05-17T01:20:41.428Z,69.2
2018-05-17T01:21:41.411Z,71.01
2018-05-17T01:22:41.131Z,70.34
2018-05-17T01:23:41.380Z,67.96
2018-05-17T01:24:41.366Z,69.87
2018-05-17T01:25:41.353Z,68.24
2018-05-17T01:26:41.071Z,69.29
2018-05-17T01:27:41.317Z,69.01
2018-05-17T01:28:41.302Z,68.72
2018-05-17T01:29:41.289Z,68.05
2018-05-17T01:30:41.271Z,68.72
2018-05-17T01:31:41.004Z,68.34
2018-05-17T01:32:40.976Z,68.63
2018-05-17T01:33:40.962Z,68.91
2018-05-17T01:34:41.208Z,68.44
2018-05-17T01:35:41.191Z,68.15
2018-05-17T01:36:40.912Z,69.01
2018-05-17T01:37:40.901Z,69.2
2018-05-17T01:38:41.147Z,67.48
2018-05-17T01:39:41.133Z,67.48
2018-05-17T01:40:41.116Z,67.96
2018-05-17T01:41:40.835Z,67.68
2018-05-17T01:42:40.818Z,67.39
2018-05-17T01:43:40.803Z,66.91
2018-05-17T01:44:41.054Z,67.58
2018-05-17T01:45:40.779Z,67.29
2018-05-17T01:46:41.024Z,67.29
2018-05-17T01:47:41.025Z,68.34
2018-05-17T01:48:40.998Z,67.96
2018-05-17T01:49:40.977Z,68.53
2018-05-17T01:50:40.702Z,67.68
2018-05-17T01:51:40.944Z,67.77
2018-05-17T01:52:40.666Z,68.72
2018-05-17T01:53:40.912Z,69.39
2018-05-17T01:54:40.634Z,69.2
2018-05-17T01:55:40.625Z,69.2
2018-05-17T01:56:40.869Z,68.44
2018-05-17T01:57:40.584Z,69.77
2018-05-17T01:58:40.571Z,69.77
2018-05-17T01:59:40.827Z,70.25
2018-05-17T02:00:40.539Z,70.82
2018-05-17T02:01:40.527Z,69.68
2018-05-17T02:02:40.510Z,67.86
2018-05-17T02:03:40.758Z,68.44
2018-05-17T02:04:40.478Z,68.53
2018-05-17T02:05:40.467Z,68.53
2018-05-17T02:06:40.449Z,67.48
2018-05-17T02:07:40.435Z,68.15
2018-05-17T02:08:40.417Z,67.29
2018-05-17T02:09:40.399Z,68.05
2018-05-17T02:10:40.669Z,68.05
2018-05-17T02:11:40.641Z,67.48
2018-05-17T02:12:40.622Z,67.29
2018-05-17T02:13:40.337Z,67.68
2018-05-17T02:14:40.587Z,66.15
2018-05-17T02:15:40.774Z,68.44
2018-05-17T02:16:40.559Z,69.01
2018-05-17T02:17:40.538Z,69.29
2018-05-17T02:18:40.525Z,69.29
2018-05-17T02:19:40.509Z,70.15
2018-05-17T02:20:40.494Z,69.2
2018-05-17T02:21:40.485Z,69.58
2018-05-17T02:22:40.465Z,68.91
2018-05-17T02:23:40.445Z,69.39
2018-05-17T02:24:40.163Z,69.39
2018-05-17T02:25:40.420Z,69.01
2018-05-17T02:26:40.135Z,69.68
2018-05-17T02:27:40.382Z,69.39
2018-05-17T02:28:40.103Z,69.29
2018-05-17T02:29:40.358Z,69.87
2018-05-17T02:30:40.347Z,69.48
2018-05-17T02:31:40.059Z,69.58
2018-05-17T02:32:40.309Z,70.25
2018-05-17T02:33:40.302Z,69.96
2018-05-17T02:34:40.270Z,69.96
2018-05-17T02:35:39.992Z,69.39
2018-05-17T02:36:40.249Z,69.77
2018-05-17T02:37:39.971Z,69.68
2018-05-17T02:38:40.220Z,70.59
2018-05-17T02:39:40.199Z,69.45
2018-05-17T02:40:40.190Z,70.12
2018-05-17T02:41:39.899Z,70.15
2018-05-17T02:42:39.886Z,69.64
2018-05-17T02:43:40.132Z,71.36
2018-05-17T02:44:39.856Z,70.97
2018-05-17T02:45:40.107Z,71.26
2018-05-17T02:46:40.087Z,70.97
2018-05-17T02:47:39.808Z,70.97
2018-05-17T02:48:40.061Z,71.45
2018-05-17T02:49:39.775Z,70.69
2018-05-17T02:50:39.758Z,69.45
2018-05-17T02:51:40.007Z,68.69
2018-05-17T02:52:39.997Z,70.4
2018-05-17T02:53:39.716Z,70.88
2018-05-17T02:54:39.965Z,70.97
2018-05-17T02:55:39.684Z,71.07
2018-05-17T02:56:39.929Z,71.26
2018-05-17T02:57:39.649Z,71.26
2018-05-17T02:58:39.906Z,70.5
2018-05-17T02:59:39.886Z,70.78
2018-05-17T03:00:39.867Z,70.59
2018-05-17T03:01:39.586Z,72.5
2018-05-17T03:02:39.830Z,72.02
2018-05-17T03:03:39.819Z,71.36
2018-05-17T03:04:39.539Z,72.02
2018-05-17T03:05:39.522Z,71.26
2018-05-17T03:06:39.772Z,71.26
2018-05-17T03:07:39.781Z,70.78
2018-05-17T03:08:39.737Z,71.36
2018-05-17T03:09:39.457Z,71.36
2018-05-17T03:10:39.724Z,72.12
2018-05-17T03:11:39.423Z,70.88
2018-05-17T03:12:39.687Z,72.12
2018-05-17T03:13:39.658Z,72.41
2018-05-17T03:14:39.380Z,72.12
2018-05-17T03:15:39.628Z,72.02
2018-05-17T03:16:39.611Z,72.78
2018-05-17T03:17:39.594Z,72.31
2018-05-17T03:18:39.581Z,72.41
2018-05-17T03:19:39.569Z,74.31
2018-05-17T03:20:39.601Z,73.93
2018-05-17T03:21:39.528Z,73.07
2018-05-17T03:22:39.254Z,72.41
2018-05-17T03:23:39.236Z,72.97
2018-05-17T03:24:39.485Z,73.83
2018-05-17T03:25:39.473Z,74.21
2018-05-17T03:26:39.454Z,74.6
2018-05-17T03:27:39.433Z,73.65
2018-05-17T03:28:39.417Z,74.5
2018-05-17T03:29:39.402Z,74.31
2018-05-17T03:30:39.391Z,74.12
2018-05-17T03:31:39.371Z,74.02
2018-05-17T03:32:39.353Z,74.21
2018-05-17T03:33:39.340Z,75.45
2018-05-17T03:34:39.321Z,75.26
2018-05-17T03:35:39.312Z,73.74
2018-05-17T03:36:39.295Z,73.55
2018-05-17T03:37:39.280Z,73.74
2018-05-17T03:38:39.264Z,74.12
2018-05-17T03:39:38.979Z,73.65
2018-05-17T03:40:39.227Z,74.12
2018-05-17T03:41:38.948Z,74.31
2018-05-17T03:42:39.205Z,73.36
2018-05-17T03:43:39.185Z,73.93
2018-05-17T03:44:39.166Z,74.5
2018-05-17T03:45:38.880Z,73.65
2018-05-17T03:46:39.135Z,74.88
2018-05-17T03:47:39.120Z,74.21
2018-05-17T03:48:39.102Z,73.36
2018-05-17T03:49:38.817Z,73.83
2018-05-17T03:50:38.803Z,74.21
2018-05-17T03:51:38.787Z,75.45
2018-05-17T03:52:38.770Z,75.07
2018-05-17T03:53:39.030Z,74.88
2018-05-17T03:54:39.001Z,75.16
2018-05-17T03:55:38.988Z,76.12
2018-05-17T03:56:38.972Z,76.5
2018-05-17T03:57:38.960Z,75.36
2018-05-17T03:58:38.677Z,75.93
2018-05-17T03:59:38.660Z,75.07
2018-05-17T04:00:38.645Z,74.5
2018-05-17T04:01:38.632Z,75.16
2018-05-17T04:02:38.877Z,75.74
2018-05-17T04:03:38.598Z,75.45
2018-05-17T04:04:38.851Z,75.16
2018-05-17T04:05:38.565Z,74.92
2018-05-17T04:06:38.811Z,74.5
2018-05-17T04:07:38.538Z,74.31
2018-05-17T04:08:38.936Z,75.55
2018-05-17T04:09:38.761Z,76.06
2018-05-17T04:10:38.750Z,76.59
2018-05-17T04:11:38.731Z,75.64
2018-05-17T04:12:38.452Z,75.36
2018-05-17T04:13:38.702Z,74.79
2018-05-17T04:14:38.421Z,76.5
2018-05-17T04:15:38.813Z,77.97
2018-05-17T04:16:38.674Z,77.74
2018-05-17T04:17:38.373Z,77.55
2018-05-17T04:18:38.621Z,77.93
2018-05-17T04:19:38.606Z,76.79
2018-05-17T04:20:38.592Z,76.79
2018-05-17T04:21:38.580Z,76.79
2018-05-17T04:22:38.561Z,77.69
2018-05-17T04:23:38.545Z,78.5
2018-05-17T04:24:38.539Z,77.74
2018-05-17T04:25:38.248Z,77.07
2018-05-17T04:26:38.232Z,76.4
2018-05-17T04:27:38.218Z,76.98
2018-05-17T04:28:38.201Z,76.4
2018-05-17T04:29:38.184Z,77.36
2018-05-17T04:30:38.168Z,77.55
2018-05-17T04:31:38.415Z,78.98
2018-05-17T04:32:38.136Z,80.02
2018-05-17T04:33:38.389Z,79.21
2018-05-17T04:34:38.109Z,80.35
2018-05-17T04:35:38.088Z,80.88
2018-05-17T04:36:38.072Z,80.88
2018-05-17T04:37:38.056Z,80.69
2018-05-17T04:38:38.039Z,81.65
2018-05-17T04:39:38.031Z,81.36
2018-05-17T04:40:38.014Z,80.98
2018-05-17T04:41:37.994Z,81.55
2018-05-17T04:42:38.245Z,82.41
2018-05-17T04:43:38.224Z,82.41
2018-05-17T04:44:37.948Z,83.36
2018-05-17T04:45:38.203Z,82.89
2018-05-17T04:46:37.915Z,83.84
2018-05-17T04:47:38.169Z,84.03
2018-05-17T04:48:38.161Z,83.45
2018-05-17T04:49:37.871Z,82.89
2018-05-17T04:50:37.852Z,84.12
2018-05-17T04:51:37.840Z,84.6
2018-05-17T04:52:38.089Z,85.17
2018-05-17T04:53:37.805Z,83.69
2018-05-17T04:54:38.062Z,83.55
2018-05-17T04:55:38.037Z,82.6
2018-05-17T04:56:38.021Z,83.07
2018-05-17T04:57:37.746Z,83.84
2018-05-17T04:58:37.728Z,83.26
2018-05-17T04:59:37.709Z,83.26
2018-05-17T05:00:37.959Z,83.12
2018-05-17T05:01:37.676Z,81.78
2018-05-17T05:02:37.785Z,84.07
2018-05-17T05:03:37.644Z,85.5
2018-05-17T05:04:37.895Z,84.88
2018-05-17T05:05:37.880Z,86.74
2018-05-17T05:06:37.601Z,87.02
2018-05-17T05:07:37.855Z,85.97
2018-05-17T05:08:37.575Z,88.07
2018-05-17T05:09:37.554Z,88.36
2018-05-17T05:10:37.803Z,89.31
2018-05-17T05:11:37.784Z,87.88
2018-05-17T05:12:37.773Z,86.26
2018-05-17T05:13:37.490Z,87.02
2018-05-17T05:14:37.472Z,86.74
2018-05-17T05:15:37.462Z,87.4
2018-05-17T05:16:37.706Z,86.16
2018-05-17T05:17:37.692Z,85.5
2018-05-17T05:18:37.672Z,84.64
2018-05-17T05:19:37.395Z,84.92
2018-05-17T05:20:37.640Z,86.55
2018-05-17T05:21:37.637Z,89.12
2018-05-17T05:22:37.347Z,85.88
2018-05-17T05:23:37.598Z,84.64
2018-05-17T05:24:37.582Z,85.97
2018-05-17T05:25:37.306Z,86.55
2018-05-17T05:26:37.555Z,85.69
2018-05-17T05:27:37.272Z,85.02
2018-05-17T05:28:37.255Z,87.31
2018-05-17T05:29:37.239Z,87.31
2018-05-17T05:30:37.223Z,87.12
2018-05-17T05:31:37.536Z,87.88
2018-05-17T05:32:37.193Z,86.55
2018-05-17T05:33:37.176Z,87.79
2018-05-17T05:34:37.160Z,86.45
2018-05-17T05:35:37.148Z,87.79
2018-05-17T05:36:37.131Z,90.17
2018-05-17T05:37:37.540Z,87.6
2018-05-17T05:38:37.101Z,90.74
2018-05-17T05:39:37.352Z,91.13
2018-05-17T05:40:37.069Z,88.93
2018-05-17T05:41:37.056Z,90.36
2018-05-17T05:42:37.307Z,91.6
2018-05-17T05:43:37.024Z,90.08
2018-05-17T05:44:37.271Z,90.64
2018-05-17T05:45:37.274Z,89.79
2018-05-17T05:46:36.981Z,89.69
2018-05-17T05:47:36.967Z,88.26
2018-05-17T05:48:36.947Z,89.12
2018-05-17T05:49:37.349Z,88.84
2018-05-17T05:50:36.920Z,90.88
2018-05-17T05:51:37.165Z,88.36
2018-05-17T05:52:37.163Z,91.07
2018-05-17T05:53:36.872Z,91.31
2018-05-17T05:54:36.856Z,92.17
2018-05-17T05:55:37.108Z,91.41
2018-05-17T05:56:37.093Z,93.36
2018-05-17T05:57:37.077Z,91.13
2018-05-17T05:58:36.804Z,91.83
2018-05-17T05:59:37.051Z,91.83
2018-05-17T06:00:37.029Z,92.98
2018-05-17T06:01:36.750Z,91.74
2018-05-17T06:02:36.735Z,90.36
2018-05-17T06:03:36.723Z,91.69
2018-05-17T06:04:36.975Z,90.59
2018-05-17T06:05:36.962Z,90.5
2018-05-17T06:06:36.946Z,90.12
2018-05-17T06:07:36.925Z,90.98
2018-05-17T06:08:36.918Z,90.22
2018-05-17T06:09:36.901Z,93.27
2018-05-17T06:10:36.884Z,91.93
2018-05-17T06:11:36.872Z,90.88
2018-05-17T06:12:36.894Z,92.5
2018-05-17T06:13:36.577Z,91.64
2018-05-17T06:14:36.564Z,89.54
2018-05-17T06:15:36.810Z,90.69
2018-05-17T06:16:36.795Z,90.22
2018-05-17T06:17:36.781Z,91.74
2018-05-17T06:18:36.765Z,91.46
2018-05-17T06:19:36.485Z,94.32
2018-05-17T06:20:36.738Z,91.83
2018-05-17T06:21:36.456Z,95.17
2018-05-17T06:22:36.712Z,93.93
2018-05-17T06:23:36.427Z,94.98
2018-05-17T06:24:36.677Z,93.98
2018-05-17T06:25:36.661Z,93.6
2018-05-17T06:26:36.382Z,93.98
2018-05-17T06:27:36.369Z,93.02
2018-05-17T06:28:36.620Z,93.6
2018-05-17T06:29:36.339Z,93.12
2018-05-17T06:30:36.589Z,94.27
2018-05-17T06:31:36.315Z,96.75
2018-05-17T06:32:36.561Z,94.36
2018-05-17T06:33:36.549Z,95.7
2018-05-17T06:34:36.265Z,94.46
2018-05-17T06:35:36.255Z,93.41
2018-05-17T06:36:36.238Z,93.22
2018-05-17T06:37:36.571Z,95.51
2018-05-17T06:38:36.210Z,97.99
2018-05-17T06:39:36.467Z,96.27
2018-05-17T06:40:36.447Z,97.13
2018-05-17T06:41:36.449Z,95.79
2018-05-17T06:42:36.445Z,95.79
2018-05-17T06:43:36.138Z,95.32
2018-05-17T06:44:36.479Z,94.17
2018-05-17T06:45:36.382Z,96.94
2018-05-17T06:46:36.103Z,96.27
2018-05-17T06:47:36.084Z,96.08
2018-05-17T06:48:36.068Z,95.03
2018-05-17T06:49:36.314Z,98.85
2018-05-17T06:50:36.037Z,98.27
2018-05-17T06:51:36.293Z,95.75
2018-05-17T06:52:36.011Z,94.65
2018-05-17T06:53:35.996Z,97.42
2018-05-17T06:54:35.984Z,95.32
2018-05-17T06:55:36.233Z,95.98
2018-05-17T06:56:36.223Z,95.98
2018-05-17T06:57:36.204Z,94.46
2018-05-17T06:58:35.925Z,98.18
2018-05-17T06:59:35.920Z,97.51
2018-05-17T07:00:36.354Z,96.75
2018-05-17T07:01:35.884Z,97.22
2018-05-17T07:02:36.145Z,95.03
2018-05-17T07:03:35.855Z,97.03
2018-05-17T07:04:35.843Z,96.17
2018-05-17T07:05:35.825Z,96.56
2018-05-17T07:06:36.080Z,97.89
2018-05-17T07:07:36.065Z,97.99
2018-05-17T07:08:36.050Z,97.89
2018-05-17T07:09:36.035Z,97.03
2018-05-17T07:10:36.192Z,96.75
2018-05-17T07:11:35.750Z,97.99
2018-05-17T07:12:36.006Z,96.84
2018-05-17T07:13:35.716Z,96.27
2018-05-17T07:14:35.966Z,96.66
2018-05-17T07:15:35.685Z,97.03
2018-05-17T07:16:35.939Z,96.94
2018-05-17T07:17:35.925Z,97.89
2018-05-17T07:18:35.957Z,96.75
2018-05-17T07:19:35.894Z,96.46
2018-05-17T07:20:35.887Z,97.42
2018-05-17T07:21:35.602Z,98.42
2018-05-17T07:22:35.852Z,92.65
2018-05-17T07:23:35.843Z,99.99
2018-05-17T07:24:35.832Z,97.94
2018-05-17T07:25:35.820Z,98.03
2018-05-17T07:26:35.531Z,99.99
2018-05-17T07:27:35.518Z,99.04
2018-05-17T07:28:35.775Z,99.99
2018-05-17T07:29:35.754Z,99.99
2018-05-17T07:30:35.751Z,99.99
2018-05-17T07:31:35.738Z,99.85
2018-05-17T07:32:35.456Z,99.99
2018-05-17T07:33:35.716Z,99.99
2018-05-17T07:34:35.694Z,99.99
2018-05-17T07:35:35.687Z,99.99
2018-05-17T07:36:35.409Z,99.99
2018-05-17T07:37:35.661Z,99.99
2018-05-17T07:38:35.381Z,99.99
2018-05-17T07:39:35.632Z,99.99
2018-05-17T07:40:35.621Z,99.99
2018-05-17T07:41:35.608Z,99.99
2018-05-17T07:42:35.336Z,99.99
2018-05-17T07:43:35.586Z,99.99
2018-05-17T07:44:35.574Z,99.99
2018-05-17T07:45:35.560Z,99.99
2018-05-17T07:46:35.634Z,99.99
2018-05-17T07:47:35.272Z,99.99
2018-05-17T07:48:35.531Z,99.99
2018-05-17T07:49:35.519Z,98.67
2018-05-17T07:50:35.518Z,94.69
2018-05-17T07:51:35.232Z,91.52
2018-05-17T07:52:35.220Z,85.75
2018-05-17T07:53:35.480Z,84.5
2018-05-17T07:54:35.471Z,86.32
2018-05-17T07:55:35.198Z,90.66
2018-05-17T07:56:35.449Z,93.06
2018-05-17T07:57:35.447Z,99.39
2018-05-17T07:58:35.435Z,99.99
2018-05-17T07:59:35.157Z,99.99
2018-05-17T08:00:35.585Z,99.99
2018-05-17T08:01:35.405Z,99.99
2018-05-17T08:02:35.127Z,99.99
2018-05-17T08:03:35.122Z,99.99
2018-05-17T08:04:35.109Z,99.99
2018-05-17T08:05:35.097Z,99.99
2018-05-17T08:06:35.352Z,99.99
2018-05-17T08:07:35.079Z,99.99
2018-05-17T08:08:35.330Z,99.99
2018-05-17T08:09:35.066Z,99.99
2018-05-17T08:10:35.053Z,99.99
2018-05-17T08:11:35.033Z,99.99
2018-05-17T08:12:35.292Z,99.99
2018-05-17T08:13:35.019Z,99.99
2018-05-17T08:14:35.008Z,98.33
2018-05-17T08:15:34.992Z,92.05
2018-05-17T08:16:35.452Z,89.51
2018-05-17T08:17:35.241Z,85.91
2018-05-17T08:18:35.234Z,85.8
2018-05-17T08:19:35.224Z,80.55
2018-05-17T08:20:34.953Z,78.77
2018-05-17T08:21:35.206Z,76.5
2018-05-17T08:22:35.212Z,74.07
2018-05-17T08:23:34.933Z,75.28
2018-05-17T08:24:34.920Z,74.01
2018-05-17T08:25:34.913Z,72.6
2018-05-17T08:26:35.177Z,71.48
2018-05-17T08:27:35.175Z,71.64
2018-05-17T08:28:34.910Z,71
2018-05-17T08:29:34.900Z,73.74
2018-05-17T08:30:34.887Z,76.17
2018-05-17T08:31:34.884Z,80.09
2018-05-17T08:32:35.143Z,84.81
2018-05-17T08:33:34.871Z,86.88
2018-05-17T08:34:35.144Z,92.97
2018-05-17T08:35:35.128Z,97.95
2018-05-17T08:36:35.378Z,97.33
2018-05-17T08:37:35.122Z,99.99
2018-05-17T08:38:34.843Z,99.99
2018-05-17T08:39:35.107Z,99.99
2018-05-17T08:40:35.087Z,99.99
2018-05-17T08:41:35.082Z,99.99
2018-05-17T08:42:35.169Z,99.99
2018-05-17T08:43:34.800Z,99.99
2018-05-17T08:44:34.792Z,99.99
2018-05-17T08:45:34.862Z,99.99
2018-05-17T08:46:35.045Z,99.99
2018-05-17T08:47:34.762Z,99.99
2018-05-17T08:48:35.022Z,99.99
2018-05-17T08:49:35.010Z,99.99
2018-05-17T08:50:34.735Z,99.99
2018-05-17T08:51:34.993Z,99.99
2018-05-17T08:52:34.984Z,99.99
2018-05-17T08:53:34.710Z,99.99
2018-05-17T08:54:34.703Z,99.99
2018-05-17T08:55:34.961Z,99.99
2018-05-17T08:56:34.681Z,99.99
2018-05-17T08:57:34.935Z,99.99
2018-05-17T08:58:34.923Z,99.99
2018-05-17T08:59:34.907Z,99.99
2018-05-17T09:00:34.633Z,99.99
2018-05-17T09:01:34.620Z,99.99
2018-05-17T09:02:34.885Z,99.99
2018-05-17T09:03:34.869Z,99.99
2018-05-17T09:04:34.859Z,99.99
2018-05-17T09:05:34.841Z,99.99
2018-05-17T09:06:34.842Z,99.99
2018-05-17T09:07:34.560Z,99.99
2018-05-17T09:08:34.812Z,99.99
2018-05-17T09:09:34.538Z,99.99
2018-05-17T09:10:34.526Z,99.99
2018-05-17T09:11:34.517Z,99.99
2018-05-17T09:12:34.765Z,99.99
2018-05-17T09:13:34.846Z,99.99
2018-05-17T09:14:34.481Z,99.99
2018-05-17T09:15:34.469Z,99.99
2018-05-17T09:16:34.728Z,99.99
2018-05-17T09:17:34.708Z,99.99
2018-05-17T09:18:34.699Z,99.99
2018-05-17T09:19:34.690Z,99.99
2018-05-17T09:20:34.897Z,99.99
2018-05-17T09:21:34.674Z,99.99
2018-05-17T09:22:34.652Z,99.99
2018-05-17T09:23:34.646Z,99.99
2018-05-17T09:24:34.371Z,99.99
2018-05-17T09:25:34.360Z,99.99
2018-05-17T09:26:34.344Z,99.99
2018-05-17T09:27:34.596Z,99.99
2018-05-17T09:28:34.325Z,99.99
2018-05-17T09:29:34.576Z,99.99
2018-05-17T09:30:34.564Z,99.99
2018-05-17T09:31:34.556Z,99.99
2018-05-17T09:32:34.278Z,99.99
2018-05-17T09:33:34.280Z,99.99
2018-05-17T09:34:34.515Z,99.99
2018-05-17T09:35:34.246Z,99.99
2018-05-17T09:36:34.496Z,99.99
2018-05-17T09:37:34.217Z,99.99
2018-05-17T09:38:34.207Z,99.99
2018-05-17T09:39:34.201Z,99.99
2018-05-17T09:40:34.457Z,99.99
2018-05-17T09:41:34.174Z,99.99
2018-05-17T09:42:34.428Z,99.99
2018-05-17T09:43:34.418Z,99.99
2018-05-17T09:44:34.143Z,99.99
2018-05-17T09:45:34.128Z,99.99
2018-05-17T09:46:34.394Z,99.99
2018-05-17T09:47:34.152Z,99.99
2018-05-17T09:48:34.102Z,99.99
2018-05-17T09:49:34.346Z,99.99
2018-05-17T09:50:34.335Z,99.99
2018-05-17T09:51:34.332Z,99.99
2018-05-17T09:52:34.048Z,99.99
2018-05-17T09:53:34.316Z,99.99
2018-05-17T09:54:34.294Z,99.99
2018-05-17T09:55:34.285Z,99.99
2018-05-17T09:56:34.004Z,99.99
2018-05-17T09:57:34.262Z,99.99
2018-05-17T09:58:34.260Z,99.99
2018-05-17T09:59:34.239Z,99.99
2018-05-17T10:00:34.230Z,99.99
2018-05-17T10:01:34.222Z,99.99
2018-05-17T10:02:34.215Z,99.99
2018-05-17T10:03:33.930Z,99.99
2018-05-17T10:04:34.183Z,99.99
2018-05-17T10:05:33.911Z,99.99
2018-05-17T10:06:33.897Z,99.99
2018-05-17T10:07:33.888Z,99.99
2018-05-17T10:08:33.882Z,99.99
2018-05-17T10:09:33.870Z,99.99
2018-05-17T10:10:33.851Z,99.99
2018-05-17T10:11:33.844Z,99.99
2018-05-17T10:12:33.834Z,99.99
2018-05-17T10:13:33.825Z,99.99
2018-05-17T10:14:34.180Z,99.99
2018-05-17T10:15:33.875Z,99.99
2018-05-17T10:16:34.259Z,99.99
2018-05-17T10:17:34.045Z,99.99
2018-05-17T10:18:33.772Z,99.99
2018-05-17T10:19:34.023Z,99.99
2018-05-17T10:20:34.016Z,99.72
2018-05-17T10:21:34.007Z,93.98
2018-05-17T10:22:33.728Z,92.39
2018-05-17T10:23:33.993Z,90.76
2018-05-17T10:24:33.715Z,88.31
2018-05-17T10:25:33.710Z,86.92
2018-05-17T10:26:33.970Z,86.68
2018-05-17T10:27:33.976Z,88.07
2018-05-17T10:28:33.960Z,90.61
2018-05-17T10:29:33.696Z,86.14
2018-05-17T10:30:33.683Z,80.42
2018-05-17T10:31:33.682Z,79.11
2018-05-17T10:32:33.937Z,75.21
2018-05-17T10:33:33.675Z,78.09
2018-05-17T10:34:33.733Z,73.99
2018-05-17T10:35:33.934Z,72.84
2018-05-17T10:36:33.664Z,69.31
2018-05-17T10:37:33.930Z,71.72
2018-05-17T10:38:33.927Z,67.52
2018-05-17T10:39:33.921Z,67.29
2018-05-17T10:40:33.659Z,65.56
2018-05-17T10:41:33.923Z,67.97
2018-05-17T10:42:33.924Z,70.28
2018-05-17T10:43:33.655Z,65.63
2018-05-17T10:44:33.657Z,64.56
2018-05-17T10:45:33.921Z,67.36
2018-05-17T10:46:33.922Z,69.26
2018-05-17T10:47:33.922Z,63.6
2018-05-17T10:48:33.920Z,63.76
2018-05-17T10:49:33.924Z,64.15
2018-05-17T10:50:33.658Z,65.01
2018-05-17T10:51:33.926Z,63.7
2018-05-17T10:52:33.932Z,63.67
2018-05-17T10:53:33.667Z,63.67
2018-05-17T10:54:34.092Z,62.34
2018-05-17T10:55:33.671Z,63.4
2018-05-17T10:56:33.939Z,62.63
2018-05-17T10:57:34.048Z,61.12
2018-05-17T10:58:33.942Z,62.25
2018-05-17T10:59:33.676Z,63.79
2018-05-17T11:00:33.674Z,62.28
2018-05-17T11:01:33.681Z,64.66
2018-05-17T11:02:34.141Z,65.24
2018-05-17T11:03:33.945Z,64.79
2018-05-17T11:04:33.951Z,62.98
2018-05-17T11:05:33.702Z,62.5
2018-05-17T11:06:33.691Z,63.28
2018-05-17T11:07:33.699Z,64.14
2018-05-17T11:08:33.968Z,63.28
2018-05-17T11:09:33.706Z,61.08
2018-05-17T11:10:33.707Z,61.05
2018-05-17T11:11:33.711Z,60.67
2018-05-17T11:12:33.977Z,62.4
2018-05-17T11:13:33.748Z,61.05
2018-05-17T11:14:33.719Z,62.95
2018-05-17T11:15:33.983Z,65.27
2018-05-17T11:16:33.723Z,61.15
2018-05-17T11:17:33.727Z,60.89
2018-05-17T11:18:33.995Z,59.05
2018-05-17T11:19:33.732Z,57.38
2018-05-17T11:20:33.735Z,61.54
2018-05-17T11:21:34.004Z,60.76
2018-05-17T11:22:34.008Z,57.99
2018-05-17T11:23:33.750Z,58.18
2018-05-17T11:24:33.750Z,57.51
2018-05-17T11:25:34.062Z,59.05
2018-05-17T11:26:33.754Z,61.05
2018-05-17T11:27:34.044Z,60.89
2018-05-17T11:28:33.761Z,58.95
2018-05-17T11:29:34.028Z,58.98
2018-05-17T11:30:34.035Z,58.53
2018-05-17T11:31:34.037Z,57.76
2018-05-17T11:32:33.774Z,56.37
2018-05-17T11:33:34.044Z,58.47
2018-05-17T11:34:33.792Z,59.99
2018-05-17T11:35:34.049Z,61.41
2018-05-17T11:36:34.057Z,62.18
2018-05-17T11:37:34.061Z,62.54
2018-05-17T11:38:34.219Z,62.79
2018-05-17T11:39:34.064Z,61.34
2018-05-17T11:40:33.810Z,61.76
2018-05-17T11:41:34.076Z,58.8
2018-05-17T11:42:33.812Z,58.92
2018-05-17T11:43:34.080Z,59.5
2018-05-17T11:44:34.093Z,57.86
2018-05-17T11:45:33.830Z,57.28
2018-05-17T11:46:34.095Z,57.08
2018-05-17T11:47:34.097Z,59.11
2018-05-17T11:48:34.103Z,57.76
2018-05-17T11:49:34.106Z,56.6
2018-05-17T11:50:33.850Z,57.5
2018-05-17T11:51:33.851Z,57.3
2018-05-17T11:52:33.856Z,57.3
2018-05-17T11:53:33.858Z,55.94
2018-05-17T11:54:34.136Z,58.47
2018-05-17T11:55:34.143Z,56.75
2018-05-17T11:56:33.871Z,57.23
2018-05-17T11:57:34.141Z,57.75
2018-05-17T11:58:33.886Z,55.22
2018-05-17T11:59:34.153Z,55.9
2018-05-17T12:00:34.162Z,55.46
2018-05-17T12:01:34.392Z,57.37
2018-05-17T12:02:34.201Z,57.18
2018-05-17T12:03:34.170Z,57.37
2018-05-17T12:04:34.186Z,58.53
2018-05-17T12:05:34.174Z,60.08
2018-05-17T12:06:33.912Z,61.08
2018-05-17T12:07:34.356Z,58.01
2018-05-17T12:08:34.189Z,56.85
2018-05-17T12:09:34.195Z,56.26
2018-05-17T12:10:34.200Z,55.88
2018-05-17T12:11:34.201Z,54.88
2018-05-17T12:12:33.948Z,55.3
2018-05-17T12:13:34.205Z,54.39
2018-05-17T12:14:33.948Z,54.21
2018-05-17T12:15:34.219Z,53.23
2018-05-17T12:16:34.431Z,57.11
2018-05-17T12:17:33.968Z,52.49
2018-05-17T12:18:34.230Z,52.29
2018-05-17T12:19:34.239Z,56.36
2018-05-17T12:20:33.976Z,53.45
2018-05-17T12:21:34.249Z,54.91
2018-05-17T12:22:34.247Z,55.04
2018-05-17T12:23:34.252Z,54.16
2018-05-17T12:24:34.258Z,54.55
2018-05-17T12:25:34.267Z,56.1
2018-05-17T12:26:34.004Z,53.09
2018-05-17T12:27:34.007Z,53.55
2018-05-17T12:28:34.013Z,54.81
2018-05-17T12:29:34.282Z,56.34
2018-05-17T12:30:34.284Z,53.94
2018-05-17T12:31:34.035Z,56.39
2018-05-17T12:32:34.294Z,53.77
2018-05-17T12:33:34.302Z,53.65
2018-05-17T12:34:34.040Z,54.35
2018-05-17T12:35:34.314Z,53.49
2018-05-17T12:36:34.313Z,52.71
2018-05-17T12:37:34.052Z,53.09
2018-05-17T12:38:34.057Z,53.51
2018-05-17T12:39:34.064Z,54.58
2018-05-17T12:40:34.070Z,53.7
2018-05-17T12:41:34.342Z,55.87
2018-05-17T12:42:34.083Z,53.92
2018-05-17T12:43:34.346Z,53.17
2018-05-17T12:44:34.352Z,52.3
2018-05-17T12:45:34.356Z,51.23
2018-05-17T12:46:34.366Z,52.37
2018-05-17T12:47:34.101Z,51.98
2018-05-17T12:48:34.372Z,53.31
2018-05-17T12:49:34.379Z,55.35
2018-05-17T12:50:34.382Z,52.93
2018-05-17T12:51:34.387Z,54.86
2018-05-17T12:52:34.395Z,53.51
2018-05-17T12:53:34.405Z,51.96
2018-05-17T12:54:34.142Z,52.37